Smithboro, Illinois
Current Conditions -  °F | °C
As of 2:35 AM on Saturday 25 Oct 2014 (Local Time) from K3LF Reporting Station
Clear Clear  
Wind Chill: 53°   Ceiling: Unl
Heat Index: 53°   Visibility: 10mi
Dew Point: 48°   Wind: 5mph
Humidity: 85%   Direction: 200°SSW
Pressure: 29.98"   Gusts: NA
Location:  38.9°N, 89.34°W
Report Text: K3LF 250735Z AUTO 20004KT 10SM CLR 12/09 A2998 RMK AO2 T01150091
Loading
Personal Weather Stations






























Interactive Weather Map
Tropical Storm Tracking
New forecast layout! Learn more

10-Day Weather Forecast

Advertisements
Track Severe Weather on mobile